createdAt,value
2022-09-16T00:01:30.335Z,96954.03
2022-09-16T00:06:33.281Z,96958.63
2022-09-16T00:11:35.048Z,96961.28
2022-09-16T00:16:36.937Z,96967.50
2022-09-16T00:21:39.092Z,96969.09
2022-09-16T00:26:41.262Z,96958.69
2022-09-16T00:31:43.073Z,96963.69
2022-09-16T00:36:44.934Z,96962.91
2022-09-16T00:41:46.749Z,96960.72
2022-09-16T00:46:49.735Z,96967.38
2022-09-16T00:51:57.175Z,96957.97
2022-09-16T00:57:00.877Z,96956.56
2022-09-16T01:02:16.187Z,96961.41
2022-09-16T01:07:29.289Z,96958.41
2022-09-16T01:12:33.473Z,96959.38
2022-09-16T01:18:12.188Z,96962.97
2022-09-16T01:23:41.962Z,96958.16
2022-09-16T01:29:11.406Z,96964.94
2022-09-16T01:34:34.365Z,96961.72
2022-09-16T01:39:56.410Z,96952.25
2022-09-16T01:45:14.879Z,96956.66
2022-09-16T01:50:16.618Z,96962.28
2022-09-16T01:55:37.368Z,96956.47
2022-09-16T02:00:43.124Z,96956.47
2022-09-16T02:05:55.370Z,96946.84
2022-09-16T02:11:00.743Z,96941.03
2022-09-16T02:16:08.266Z,96942.06
2022-09-16T02:21:14.655Z,96939.84
2022-09-16T02:26:21.803Z,96942.44
2022-09-16T02:31:28.411Z,96946.88
2022-09-16T02:36:33.850Z,96947.88
2022-09-16T02:41:39.309Z,96945.09
2022-09-16T02:47:01.135Z,96945.88
2022-09-16T02:52:23.414Z,96951.94
2022-09-16T02:57:25.357Z,96960.72
2022-09-16T03:02:27.605Z,96965.75
2022-09-16T03:07:29.621Z,96956.94
2022-09-16T03:12:40.527Z,96958.13
2022-09-16T03:18:08.986Z,96963.75
2022-09-16T03:23:33.613Z,96954.94
2022-09-16T03:28:55.162Z,96958.38
2022-09-16T03:34:14.082Z,96956.78
2022-09-16T03:39:16.386Z,96962.78
2022-09-16T03:44:18.296Z,96960.97
2022-09-16T03:49:20.043Z,96962.19
2022-09-16T03:54:23.068Z,96954.59
2022-09-16T03:59:24.848Z,96945.75
2022-09-16T04:04:26.680Z,96949.38
2022-09-16T04:09:28.468Z,96946.78
2022-09-16T04:14:30.218Z,96944.19
2022-09-16T04:19:31.933Z,96949.56
2022-09-16T04:24:33.674Z,96946.16
2022-09-16T04:29:35.433Z,96946.97
2022-09-16T04:34:37.165Z,96952.59
2022-09-16T04:39:41.643Z,96943.00
2022-09-16T04:44:44.840Z,96946.59
2022-09-16T04:49:46.639Z,96946.00
2022-09-16T04:54:48.356Z,96946.38
2022-09-16T04:59:50.101Z,96943.19
2022-09-16T05:04:51.876Z,96950.59
2022-09-16T05:09:53.614Z,96953.81
2022-09-16T05:14:55.370Z,96958.81
2022-09-16T05:19:58.174Z,96954.81
2022-09-16T05:25:00.007Z,96962.59
2022-09-16T05:30:01.825Z,96952.56
2022-09-16T05:35:03.604Z,96965.59
2022-09-16T05:40:05.992Z,96960.97
2022-09-16T05:45:08.848Z,96963.81
2022-09-16T05:50:10.628Z,96962.63
2022-09-16T05:55:12.376Z,96960.22
2022-09-16T06:00:14.784Z,96962.22
2022-09-16T06:05:16.796Z,96960.63
2022-09-16T06:10:18.799Z,96956.00
2022-09-16T06:15:20.512Z,96965.97
2022-09-16T06:20:22.385Z,96964.78
2022-09-16T06:25:24.140Z,96963.56
2022-09-16T06:30:30.945Z,96960.78
2022-09-16T06:35:34.909Z,96969.34
2022-09-16T06:40:36.720Z,96962.91
2022-09-16T06:45:38.560Z,96962.84
2022-09-16T06:50:40.452Z,96959.47
2022-09-16T06:55:42.490Z,96969.06
2022-09-16T07:00:44.256Z,96967.88
2022-09-16T07:06:00.322Z,96968.22
2022-09-16T07:11:14.726Z,96967.25
2022-09-16T07:16:22.642Z,96969.69
2022-09-16T07:21:28.852Z,96965.38
2022-09-16T07:26:33.088Z,96957.56
2022-09-16T07:31:38.686Z,96958.53
2022-09-16T07:36:45.571Z,96962.47
2022-09-16T07:41:48.768Z,96963.63
2022-09-16T07:46:51.491Z,96967.34
2022-09-16T07:51:53.841Z,96968.41
2022-09-16T07:56:55.575Z,96969.47
2022-09-16T08:01:57.525Z,96972.19
2022-09-16T08:06:59.498Z,96977.59
2022-09-16T08:12:04.139Z,96981.78
2022-09-16T08:17:05.906Z,96967.94
2022-09-16T08:22:07.935Z,96966.84
2022-09-16T08:27:09.686Z,96960.00
2022-09-16T08:32:11.589Z,96963.44
2022-09-16T08:37:13.355Z,96960.75
2022-09-16T08:42:36.922Z,96965.97
2022-09-16T08:48:01.315Z,96960.19
2022-09-16T08:53:07.698Z,96968.25
2022-09-16T08:58:41.909Z,96959.00
2022-09-16T09:03:47.578Z,96967.03
2022-09-16T09:09:20.380Z,96967.69
2022-09-16T09:14:29.979Z,96973.69
2022-09-16T09:19:34.630Z,96957.38
2022-09-16T09:24:46.014Z,96952.69
2022-09-16T09:30:08.082Z,96944.31
2022-09-16T09:35:38.653Z,96942.13
2022-09-16T09:40:57.563Z,96947.31
2022-09-16T09:45:59.389Z,96943.59
2022-09-16T09:51:11.041Z,96947.97
2022-09-16T09:56:41.841Z,96944.78
2022-09-16T10:01:43.902Z,96938.06
2022-09-16T10:06:46.483Z,96925.56
2022-09-16T10:11:52.118Z,96927.84
2022-09-16T10:16:55.193Z,96930.47
2022-09-16T10:22:11.425Z,96933.47
2022-09-16T10:27:23.077Z,96932.53
2022-09-16T10:32:25.036Z,96920.81
2022-09-16T10:37:28.564Z,96926.34
2022-09-16T10:42:31.307Z,96925.00
2022-09-16T10:47:36.377Z,96926.66
2022-09-16T10:52:46.987Z,96941.75
2022-09-16T10:57:49.042Z,96936.94
2022-09-16T11:02:50.877Z,96929.84
2022-09-16T11:07:59.837Z,96927.22
2022-09-16T11:13:07.620Z,96936.78
2022-09-16T11:18:49.267Z,96937.38
2022-09-16T11:24:12.964Z,96926.72
2022-09-16T11:29:38.517Z,96924.00
2022-09-16T11:34:43.363Z,96918.53
2022-09-16T11:40:24.292Z,96930.91
2022-09-16T11:45:42.120Z,96931.91
2022-09-16T11:50:57.674Z,96930.19
2022-09-16T11:56:35.519Z,96930.13
2022-09-16T12:01:49.215Z,96925.16
2022-09-16T12:07:12.350Z,96925.66
2022-09-16T12:12:19.006Z,96920.84
2022-09-16T12:17:25.776Z,96924.16
2022-09-16T12:22:36.585Z,96923.44
2022-09-16T12:27:48.434Z,96911.78
2022-09-16T12:33:09.024Z,96913.75
2022-09-16T12:38:19.549Z,96919.16
2022-09-16T12:43:36.689Z,96905.25
2022-09-16T12:49:09.043Z,96907.91
2022-09-16T12:54:17.043Z,96903.66
2022-09-16T12:59:27.880Z,96895.78
2022-09-16T13:04:43.220Z,96895.63
2022-09-16T13:09:47.554Z,96894.72
2022-09-16T13:14:58.638Z,96894.84
2022-09-16T13:20:09.320Z,96877.06
2022-09-16T13:25:18.573Z,96883.75
2022-09-16T13:30:30.313Z,96865.44
2022-09-16T13:35:32.609Z,96869.66
2022-09-16T13:40:34.430Z,96863.75
2022-09-16T13:45:39.431Z,96861.31
2022-09-16T13:50:48.401Z,96849.94
2022-09-16T13:55:51.337Z,96863.25
2022-09-16T14:01:28.081Z,96862.03
2022-09-16T14:07:13.021Z,96862.56
2022-09-16T14:12:33.349Z,96849.09
2022-09-16T14:17:42.383Z,96858.81
2022-09-16T14:22:44.675Z,96860.81
2022-09-16T14:27:46.480Z,96843.28
2022-09-16T14:32:49.083Z,96850.81
2022-09-16T14:37:58.933Z,96844.09
2022-09-16T14:43:06.013Z,96837.69
2022-09-16T14:48:10.314Z,96828.03
2022-09-16T14:53:35.913Z,96828.84
2022-09-16T14:58:39.427Z,96833.28
2022-09-16T15:03:41.131Z,96829.41
2022-09-16T15:08:54.490Z,96826.31
2022-09-16T15:13:56.830Z,96823.63
2022-09-16T15:19:06.549Z,96824.28
2022-09-16T15:24:20.426Z,96820.28
2022-09-16T15:29:25.218Z,96821.69
2022-09-16T15:34:27.978Z,96825.16
2022-09-16T15:39:39.174Z,96820.16
2022-09-16T15:44:52.574Z,96821.97
2022-09-16T15:50:00.902Z,96819.53
2022-09-16T15:55:05.181Z,96817.56
2022-09-16T16:00:12.861Z,96813.66
2022-09-16T16:05:20.391Z,96810.31
2022-09-16T16:10:27.828Z,96816.84
2022-09-16T16:15:39.450Z,96817.31
2022-09-16T16:20:41.552Z,96827.41
2022-09-16T16:25:43.345Z,96830.00
2022-09-16T16:30:45.520Z,96824.34
2022-09-16T16:35:47.289Z,96826.28
2022-09-16T16:40:52.602Z,96819.31
2022-09-16T16:45:57.478Z,96822.06
2022-09-16T16:51:04.783Z,96825.31
2022-09-16T16:56:15.254Z,96824.97
2022-09-16T17:01:19.521Z,96821.97
2022-09-16T17:06:21.350Z,96831.16
2022-09-16T17:11:23.731Z,96826.59
2022-09-16T17:16:26.060Z,96823.28
2022-09-16T17:21:33.320Z,96815.34
2022-09-16T17:26:35.333Z,96826.44
2022-09-16T17:31:39.516Z,96830.91
2022-09-16T17:36:45.223Z,96831.78
2022-09-16T17:41:48.876Z,96838.09
2022-09-16T17:46:50.723Z,96842.97
2022-09-16T17:51:53.530Z,96845.84
2022-09-16T17:56:55.354Z,96840.03
2022-09-16T18:01:57.133Z,96839.03
2022-09-16T18:06:58.939Z,96852.06
2022-09-16T18:12:00.858Z,96856.25
2022-09-16T18:17:03.111Z,96859.28
2022-09-16T18:22:04.955Z,96860.50
2022-09-16T18:27:11.958Z,96862.09
2022-09-16T18:32:13.722Z,96862.50
2022-09-16T18:37:15.643Z,96867.72
2022-09-16T18:42:17.444Z,96862.50
2022-09-16T18:47:19.165Z,96864.91
2022-09-16T18:52:21.021Z,96867.47
2022-09-16T18:57:24.144Z,96872.28
2022-09-16T19:02:25.961Z,96872.88
2022-09-16T19:07:28.244Z,96870.06
2022-09-16T19:12:30.035Z,96871.84
2022-09-16T19:17:31.881Z,96872.84
2022-09-16T19:22:33.687Z,96874.44
2022-09-16T19:27:35.644Z,96878.19
2022-09-16T19:32:37.427Z,96876.97
2022-09-16T19:37:39.235Z,96874.59
2022-09-16T19:42:41.051Z,96866.53
2022-09-16T19:47:42.913Z,96880.13
2022-09-16T19:52:44.662Z,96877.50
2022-09-16T19:57:47.018Z,96876.28
2022-09-16T20:02:48.815Z,96867.75
2022-09-16T20:07:50.590Z,96877.28
2022-09-16T20:12:58.601Z,96878.28
2022-09-16T20:18:01.060Z,96869.34
2022-09-16T20:23:05.619Z,96875.72
2022-09-16T20:28:07.788Z,96882.13
2022-09-16T20:33:09.505Z,96876.28
2022-09-16T20:38:11.297Z,96879.00
2022-09-16T20:43:14.304Z,96883.34
2022-09-16T20:48:16.098Z,96882.34
2022-09-16T20:53:18.019Z,96879.16
2022-09-16T20:58:19.800Z,96880.59
2022-09-16T21:03:21.526Z,96878.41
2022-09-16T21:08:23.301Z,96877.41
2022-09-16T21:13:25.096Z,96880.00
2022-09-16T21:18:27.799Z,96871.22
2022-09-16T21:23:30.901Z,96880.19
2022-09-16T21:28:34.202Z,96880.59
2022-09-16T21:33:37.670Z,96896.94
2022-09-16T21:38:41.269Z,96899.13
2022-09-16T21:43:45.864Z,96885.69
2022-09-16T21:48:50.937Z,96892.25
2022-09-16T21:53:52.867Z,96890.06
2022-09-16T21:58:55.727Z,96896.81
2022-09-16T22:04:00.099Z,96899.00
2022-09-16T22:09:03.984Z,96893.16
2022-09-16T22:14:06.317Z,96892.28
2022-09-16T22:19:17.131Z,96901.41
2022-09-16T22:24:22.168Z,96901.41
2022-09-16T22:29:24.025Z,96896.53
2022-09-16T22:34:25.844Z,96888.16
2022-09-16T22:39:27.588Z,96892.28
2022-09-16T22:44:29.317Z,96883.44
2022-09-16T22:49:31.032Z,96870.69
2022-09-16T22:54:32.879Z,96876.66
2022-09-16T22:59:34.616Z,96881.47
2022-09-16T23:04:36.351Z,96865.94
2022-09-16T23:09:38.186Z,96868.28
2022-09-16T23:14:39.944Z,96866.97
2022-09-16T23:19:41.689Z,96861.16
2022-09-16T23:24:43.397Z,96860.16
2022-09-16T23:29:45.149Z,96859.03
2022-09-16T23:34:46.956Z,96873.00
2022-09-16T23:39:48.713Z,96872.41
2022-09-16T23:44:50.425Z,96865.59
2022-09-16T23:49:53.271Z,96870.88
2022-09-16T23:54:55.033Z,96868.50
2022-09-16T23:59:56.811Z,96861.53
